Time;durP1;ratioP1;P1;durP2;ratioP2;P2;SDS_P1;SDS_P2;PMS_P1;PMS_P2;Temp;Humidity;BMP_temperature;BMP_pressure;BME280_temperature;BME280_humidity;BME280_pressure;Samples;Min_cycle;Max_cycle;Signal;HPM_P1;HPM_P2
2021/05/08 00:01:30;;;;;;;17.20;14.57;;;3.90;99.90;;;;;;5040286;28;20206;-64
2021/05/08 00:03:55;;;;;;;19.33;15.00;;;3.90;99.90;;;;;;5051502;28;20523;-64
2021/05/08 00:06:21;;;;;;;19.33;15.80;;;3.90;99.90;;;;;;5043859;28;20180;-64
2021/05/08 00:08:46;;;;;;;17.97;14.87;;;3.80;99.90;;;;;;5032692;28;20202;-64
2021/05/08 00:11:12;;;;;;;22.93;16.37;;;3.80;99.90;;;;;;5050861;28;20232;-64
2021/05/08 00:13:38;;;;;;;20.50;17.07;;;3.70;99.90;;;;;;5051512;28;20178;-64
2021/05/08 00:16:04;;;;;;;21.67;16.20;;;3.60;99.90;;;;;;5031545;28;20175;-64
2021/05/08 00:18:29;;;;;;;19.27;15.33;;;3.60;99.90;;;;;;5031699;28;20213;-64
2021/05/08 00:20:55;;;;;;;20.30;15.70;;;3.60;99.90;;;;;;5046401;28;20202;-64
2021/05/08 00:23:21;;;;;;;21.43;15.97;;;3.50;99.90;;;;;;5031402;28;20180;-64
2021/05/08 00:25:46;;;;;;;20.87;15.67;;;3.40;99.90;;;;;;5047272;28;20697;-64
2021/05/08 00:28:12;;;;;;;20.17;15.80;;;3.40;99.90;;;;;;5051109;28;20175;-64
2021/05/08 00:30:37;;;;;;;19.90;15.83;;;3.30;99.90;;;;;;5036346;28;20211;-64
2021/05/08 00:33:03;;;;;;;17.40;14.93;;;3.30;99.90;;;;;;5031174;28;20254;-64
2021/05/08 00:35:29;;;;;;;18.53;15.07;;;3.30;99.90;;;;;;5043795;28;20179;-64
2021/05/08 00:37:54;;;;;;;18.70;15.87;;;3.30;99.90;;;;;;5051127;28;20628;-64
2021/05/08 00:40:20;;;;;;;19.77;15.00;;;3.30;99.90;;;;;;5043226;28;20219;-64
2021/05/08 00:42:46;;;;;;;18.00;15.07;;;3.40;99.90;;;;;;5035015;28;20564;-64
2021/05/08 00:45:12;;;;;;;21.83;15.43;;;3.40;99.90;;;;;;5043929;28;20194;-64
2021/05/08 00:47:47;;;;;;;16.60;14.40;;;3.40;99.90;;;;;;5055190;28;20229;-64
2021/05/08 00:50:16;;;;;;;16.70;14.33;;;3.30;99.90;;;;;;5045468;28;20260;-64
2021/05/08 00:52:41;;;;;;;18.40;15.13;;;3.30;99.90;;;;;;5034913;28;20259;-64
2021/05/08 00:55:08;;;;;;;20.30;16.23;;;3.30;99.90;;;;;;5042150;28;20250;-64
2021/05/08 00:57:35;;;;;;;20.03;15.37;;;3.20;99.90;;;;;;5055307;28;20171;-64
2021/05/08 01:00:01;;;;;;;18.17;14.73;;;3.20;99.90;;;;;;5048366;28;20191;-64
2021/05/08 01:02:26;;;;;;;17.50;14.87;;;3.20;99.90;;;;;;5034835;28;20589;-64
2021/05/08 01:04:52;;;;;;;18.33;15.03;;;3.10;99.90;;;;;;5038642;28;20175;-64
2021/05/08 01:07:19;;;;;;;23.60;13.73;;;3.10;99.90;;;;;;5054667;28;20171;-64
2021/05/08 01:09:46;;;;;;;17.20;14.50;;;3.10;99.90;;;;;;5051317;28;20683;-64
2021/05/08 01:12:11;;;;;;;17.13;14.67;;;3.10;99.90;;;;;;5047346;28;20171;-64
2021/05/08 01:14:39;;;;;;;14.67;13.10;;;3.00;99.90;;;;;;5035501;28;20176;-64
2021/05/08 01:17:05;;;;;;;17.83;14.60;;;3.00;99.90;;;;;;5054488;28;20632;-64
2021/05/08 01:19:32;;;;;;;18.03;13.90;;;3.00;99.90;;;;;;5054186;28;20175;-64
2021/05/08 01:21:59;;;;;;;19.37;14.87;;;3.00;99.90;;;;;;5038948;28;20179;-64
2021/05/08 01:24:25;;;;;;;18.27;14.73;;;3.00;99.90;;;;;;5054415;28;20257;-64
2021/05/08 01:26:50;;;;;;;17.50;14.30;;;2.90;99.90;;;;;;5035570;28;20270;-64
2021/05/08 01:29:16;;;;;;;19.57;14.67;;;2.90;99.90;;;;;;5034282;28;20187;-64
2021/05/08 01:31:41;;;;;;;23.53;14.57;;;2.90;99.90;;;;;;5050130;28;20297;-64
2021/05/08 01:34:07;;;;;;;15.90;13.73;;;2.90;99.90;;;;;;5054102;28;20174;-64
2021/05/08 01:36:33;;;;;;;16.00;14.00;;;2.80;99.90;;;;;;5039439;28;20229;-64
2021/05/08 01:39:05;;;;;;;17.63;13.73;;;2.80;99.90;;;;;;5033957;28;20168;-64
2021/05/08 01:41:31;;;;;;;16.73;13.50;;;2.80;99.90;;;;;;5046243;28;20267;-64
2021/05/08 01:43:56;;;;;;;15.53;13.33;;;2.80;99.90;;;;;;5053989;28;20178;-64
2021/05/08 01:46:22;;;;;;;18.00;13.70;;;2.80;99.90;;;;;;5041392;28;20290;-64
2021/05/08 01:48:48;;;;;;;18.67;13.17;;;2.80;99.90;;;;;;5032567;28;20183;-64
2021/05/08 01:51:13;;;;;;;14.10;12.03;;;2.70;99.90;;;;;;5042671;28;20241;-64
2021/05/08 01:53:39;;;;;;;14.47;12.93;;;2.80;99.90;;;;;;5053877;28;20216;-64
2021/05/08 01:56:08;;;;;;;17.30;12.83;;;2.70;99.90;;;;;;5044748;28;20661;-64
2021/05/08 01:58:37;;;;;;;15.13;12.17;;;2.70;99.90;;;;;;5033783;28;20732;-64
2021/05/08 02:01:04;;;;;;;14.90;13.03;;;2.60;99.90;;;;;;5041365;28;20624;-66
2021/05/08 02:03:29;;;;;;;14.57;12.73;;;2.50;99.90;;;;;;5055228;28;20205;-67
2021/05/08 02:05:55;;;;;;;14.93;12.77;;;2.50;99.90;;;;;;5048784;28;20179;-70
2021/05/08 02:08:21;;;;;;;16.63;13.77;;;2.50;99.90;;;;;;5035569;28;20183;-67
2021/05/08 02:10:47;;;;;;;20.47;15.23;;;2.50;99.90;;;;;;5036146;28;20199;-66
2021/05/08 02:13:14;;;;;;;25.50;14.90;;;2.40;99.90;;;;;;5054332;28;20182;-67
2021/05/08 02:15:40;;;;;;;24.30;15.53;;;2.40;99.90;;;;;;5051623;28;20641;-66
2021/05/08 02:18:07;;;;;;;22.03;15.73;;;2.40;99.90;;;;;;5033767;28;20183;-70
2021/05/08 02:20:38;;;;;;;22.53;16.50;;;2.40;99.90;;;;;;5033419;28;20206;-67
2021/05/08 02:23:06;;;;;;;20.77;16.17;;;2.30;99.90;;;;;;5047842;28;20179;-67
2021/05/08 02:25:32;;;;;;;23.53;17.13;;;2.40;99.90;;;;;;5052201;28;20270;-67
2021/05/08 02:27:58;;;;;;;18.67;15.40;;;2.40;99.90;;;;;;5054839;28;20629;-66
2021/05/08 02:30:27;;;;;;;21.23;16.43;;;2.30;99.90;;;;;;5038913;28;20561;-66
2021/05/08 02:32:53;;;;;;;21.57;16.50;;;2.30;99.90;;;;;;5034709;28;20175;-67
2021/05/08 02:35:20;;;;;;;21.67;16.43;;;2.30;99.90;;;;;;5049113;28;20575;-70
2021/05/08 02:37:47;;;;;;;25.43;18.23;;;2.30;99.90;;;;;;5054548;28;20163;-69
2021/05/08 02:40:16;;;;;;;21.00;16.50;;;2.30;99.90;;;;;;5040115;28;20698;-66
2021/05/08 02:42:42;;;;;;;24.93;17.97;;;2.30;99.90;;;;;;5034173;28;20183;-67
2021/05/08 02:45:09;;;;;;;25.37;16.90;;;2.30;99.90;;;;;;5046783;28;20183;-68
2021/05/08 02:47:39;;;;;;;25.50;17.30;;;2.30;99.90;;;;;;5054758;28;20209;-65
2021/05/08 02:50:06;;;;;;;26.97;17.53;;;2.20;99.90;;;;;;5042639;28;20210;-68
2021/05/08 02:52:31;;;;;;;26.03;18.03;;;2.20;99.90;;;;;;5040024;28;20233;-67
2021/05/08 02:54:57;;;;;;;27.20;18.43;;;2.20;99.90;;;;;;5053630;28;20167;-68
2021/05/08 02:57:23;;;;;;;24.17;17.73;;;2.20;99.90;;;;;;5050436;28;20210;-68
2021/05/08 02:59:48;;;;;;;30.67;19.60;;;2.10;99.90;;;;;;5033856;28;20211;-68
2021/05/08 03:02:14;;;;;;;24.60;19.43;;;2.30;99.90;;;;;;5035670;28;20176;-67
2021/05/08 03:04:40;;;;;;;24.93;19.53;;;2.40;99.90;;;;;;5054345;28;20679;-67
2021/05/08 03:07:05;;;;;;;28.47;19.90;;;2.50;99.90;;;;;;5053528;28;20679;-66
2021/05/08 03:09:32;;;;;;;27.57;18.57;;;2.70;99.90;;;;;;5037633;28;20183;-68
2021/05/08 03:11:59;;;;;;;26.37;20.37;;;2.60;99.90;;;;;;5053482;28;20317;-65
2021/05/08 03:14:25;;;;;;;28.73;19.73;;;2.70;99.90;;;;;;5034553;28;20172;-67
2021/05/08 03:16:51;;;;;;;27.20;19.43;;;2.70;99.90;;;;;;5033669;28;20186;-67
2021/05/08 03:19:16;;;;;;;24.53;19.47;;;2.80;99.90;;;;;;5050576;28;20189;-68
2021/05/08 03:21:42;;;;;;;26.23;18.17;;;2.80;99.90;;;;;;5053582;28;20251;-67
2021/05/08 03:24:08;;;;;;;23.00;18.47;;;2.80;99.90;;;;;;5038171;28;20241;-67
2021/05/08 03:26:34;;;;;;;28.00;19.33;;;2.80;99.90;;;;;;5053218;28;20244;-65
2021/05/08 03:29:00;;;;;;;28.53;18.70;;;2.80;99.90;;;;;;5039447;28;20175;-66
2021/05/08 03:31:26;;;;;;;21.73;18.50;;;2.80;99.90;;;;;;5033366;28;20298;-68
2021/05/08 03:33:51;;;;;;;23.53;18.80;;;2.70;99.90;;;;;;5045464;28;20591;-68
2021/05/08 03:36:17;;;;;;;25.47;17.60;;;2.70;99.90;;;;;;5053268;28;20171;-68
2021/05/08 03:38:43;;;;;;;25.67;18.30;;;2.70;99.90;;;;;;5043245;28;20172;-67
2021/05/08 03:41:08;;;;;;;22.50;17.03;;;2.60;99.90;;;;;;5033750;28;20281;-65
2021/05/08 03:43:34;;;;;;;21.20;18.90;;;2.60;99.90;;;;;;5042043;28;20193;-68
2021/05/08 03:46:00;;;;;;;29.57;18.97;;;2.60;99.90;;;;;;5053242;28;20179;-69
2021/05/08 03:48:26;;;;;;;24.67;19.00;;;2.60;99.90;;;;;;5046708;28;20180;-69
2021/05/08 03:50:52;;;;;;;21.93;18.17;;;2.60;99.90;;;;;;5033473;28;20218;-69
2021/05/08 03:53:20;;;;;;;25.37;16.90;;;2.60;99.90;;;;;;5038722;28;20221;-67
2021/05/08 03:55:46;;;;;;;26.57;16.77;;;2.70;99.90;;;;;;5053112;28;20543;-63
2021/05/08 03:58:12;;;;;;;19.63;17.23;;;2.70;99.90;;;;;;5047452;28;20258;-63
2021/05/08 04:00:37;;;;;;;18.20;15.13;;;2.70;99.90;;;;;;5031260;28;20191;-64
2021/05/08 04:03:03;;;;;;;19.80;17.23;;;2.70;99.90;;;;;;5033310;28;20191;-66
2021/05/08 04:05:29;;;;;;;22.17;16.30;;;2.80;99.90;;;;;;5051522;28;20183;-66
2021/05/08 04:07:55;;;;;;;17.27;15.43;;;2.80;99.90;;;;;;5050686;28;20701;-65
2021/05/08 04:10:21;;;;;;;19.93;16.37;;;2.80;99.90;;;;;;5031172;28;20211;-65
2021/05/08 04:12:46;;;;;;;19.17;16.27;;;2.90;99.90;;;;;;5031222;28;20183;-62
2021/05/08 04:15:13;;;;;;;18.40;15.77;;;2.90;99.90;;;;;;5049554;28;20182;-63
2021/05/08 04:17:38;;;;;;;18.87;16.43;;;2.90;99.90;;;;;;5051378;28;20178;-63
2021/05/08 04:20:05;;;;;;;27.43;16.13;;;3.00;99.90;;;;;;5033588;28;20206;-64
2021/05/08 04:22:30;;;;;;;18.20;15.93;;;3.00;99.90;;;;;;5031361;28;20183;-62
2021/05/08 04:24:56;;;;;;;19.10;15.77;;;3.00;99.90;;;;;;5044690;28;20343;-63
2021/05/08 04:27:22;;;;;;;20.00;15.67;;;3.10;99.90;;;;;;5050530;28;20660;-62
2021/05/08 04:29:47;;;;;;;24.97;17.47;;;3.20;99.90;;;;;;5036913;28;20207;-62
2021/05/08 04:32:13;;;;;;;19.00;15.80;;;3.30;99.90;;;;;;5031219;28;20176;-62
2021/05/08 04:34:39;;;;;;;22.13;15.50;;;3.40;99.90;;;;;;5043073;28;20662;-63
2021/05/08 04:37:04;;;;;;;19.97;14.20;;;3.60;99.90;;;;;;5050958;28;20175;-63
2021/05/08 04:39:30;;;;;;;21.57;15.60;;;4.00;99.90;;;;;;5040415;28;20668;-64
2021/05/08 04:41:56;;;;;;;16.07;14.50;;;4.00;99.90;;;;;;5030971;28;20538;-63
2021/05/08 04:44:22;;;;;;;22.17;14.63;;;4.30;99.90;;;;;;5031690;28;20382;-64
2021/05/08 04:46:49;;;;;;;16.57;13.77;;;4.50;99.90;;;;;;5031211;28;20257;-63
2021/05/08 04:49:15;;;;;;;15.27;13.67;;;4.80;99.90;;;;;;5038052;28;20217;-63
2021/05/08 04:51:41;;;;;;;14.37;11.57;;;4.90;99.90;;;;;;5050551;28;20210;-63
2021/05/08 04:54:06;;;;;;;12.20;10.97;;;5.20;99.90;;;;;;5045581;28;20758;-63
2021/05/08 04:56:32;;;;;;;13.67;11.73;;;5.30;99.90;;;;;;5029844;28;20622;-63
2021/05/08 04:58:57;;;;;;;13.13;11.20;;;5.50;99.90;;;;;;5044753;28;20174;-64
2021/05/08 05:01:23;;;;;;;14.73;11.47;;;5.50;99.90;;;;;;5050590;28;20256;-63
2021/05/08 05:03:49;;;;;;;13.77;11.40;;;5.60;99.90;;;;;;5038400;28;20641;-63
2021/05/08 05:06:14;;;;;;;14.13;11.47;;;5.70;99.90;;;;;;5031023;28;20322;-63
2021/05/08 05:08:40;;;;;;;12.33;10.87;;;5.60;99.90;;;;;;5041466;28;20190;-64
2021/05/08 05:11:05;;;;;;;12.30;10.77;;;5.80;99.90;;;;;;5050237;28;20207;-64
2021/05/08 05:13:31;;;;;;;11.80;10.57;;;5.90;99.90;;;;;;5041890;28;20194;-64
2021/05/08 05:15:57;;;;;;;11.07;10.17;;;6.10;99.90;;;;;;5031103;28;20179;-63
2021/05/08 05:18:22;;;;;;;11.17;10.17;;;6.20;99.90;;;;;;5032072;28;20172;-63
2021/05/08 05:20:48;;;;;;;10.73;9.63;;;6.40;99.90;;;;;;5030424;28;20195;-63
2021/05/08 05:23:14;;;;;;;10.57;9.57;;;6.40;99.90;;;;;;5033140;28;20219;-63
2021/05/08 05:25:39;;;;;;;10.20;9.20;;;6.40;99.90;;;;;;5031635;28;20203;-63
2021/05/08 05:28:28;;;;;;;11.93;10.17;;;6.30;99.90;;;;;;5037801;28;20554;-64
2021/05/08 05:30:56;;;;;;;12.07;10.63;;;6.40;99.90;;;;;;5042618;28;20215;-64
2021/05/08 05:33:22;;;;;;;11.53;9.40;;;6.40;99.90;;;;;;5039558;28;20258;-64
2021/05/08 05:35:53;;;;;;;11.47;8.80;;;6.60;99.90;;;;;;5054190;28;20557;-64
2021/05/08 05:38:19;;;;;;;9.67;8.73;;;6.80;99.90;;;;;;5049035;28;20191;-63
2021/05/08 05:40:45;;;;;;;9.53;8.73;;;7.20;99.90;;;;;;5033645;28;20215;-63
2021/05/08 05:43:12;;;;;;;9.73;8.70;;;7.50;99.90;;;;;;5036413;28;20191;-64
2021/05/08 05:45:38;;;;;;;8.57;7.77;;;7.80;99.90;;;;;;5054034;28;20261;-63
2021/05/08 05:48:05;;;;;;;8.27;7.57;;;8.00;99.90;;;;;;5052623;28;20619;-63
2021/05/08 05:50:35;;;;;;;9.33;8.43;;;8.20;99.90;;;;;;5033503;28;20218;-64
2021/05/08 05:53:01;;;;;;;9.03;8.13;;;8.40;99.90;;;;;;5033810;28;20333;-63
2021/05/08 05:55:26;;;;;;;8.03;7.33;;;8.50;99.90;;;;;;5053849;28;20266;-64
2021/05/08 05:57:54;;;;;;;8.60;7.70;;;8.70;99.90;;;;;;5053598;28;20174;-64
2021/05/08 06:00:21;;;;;;;8.10;7.47;;;9.10;99.90;;;;;;5034345;28;20210;-64
2021/05/08 06:02:46;;;;;;;7.70;6.87;;;9.50;99.90;;;;;;5033724;28;20180;-64
2021/05/08 06:05:12;;;;;;;7.97;6.77;;;9.90;99.90;;;;;;5050450;28;20648;-63
2021/05/08 06:07:39;;;;;;;8.30;7.50;;;10.20;99.90;;;;;;5053868;28;20673;-64
2021/05/08 06:10:07;;;;;;;7.70;6.90;;;10.60;99.90;;;;;;5037460;28;20442;-63
2021/05/08 06:12:32;;;;;;;7.87;7.13;;;10.60;99.90;;;;;;5033685;28;20195;-64
2021/05/08 06:14:58;;;;;;;7.40;6.80;;;10.60;99.90;;;;;;5043571;28;20260;-64
2021/05/08 06:17:24;;;;;;;8.00;7.30;;;10.20;99.90;;;;;;5053567;28;20183;-63
2021/05/08 06:19:50;;;;;;;9.03;7.47;;;10.00;99.90;;;;;;5040347;28;20204;-63
2021/05/08 06:22:16;;;;;;;8.13;7.33;;;9.80;99.90;;;;;;5033449;28;20178;-63
2021/05/08 06:24:41;;;;;;;8.40;7.63;;;9.70;99.90;;;;;;5044070;28;20193;-64
2021/05/08 06:27:07;;;;;;;7.43;6.83;;;9.90;99.90;;;;;;5053199;28;20578;-64
2021/05/08 06:29:33;;;;;;;8.90;7.13;;;10.60;99.90;;;;;;5043994;28;20237;-63
2021/05/08 06:31:58;;;;;;;7.40;6.70;;;10.70;99.90;;;;;;5044620;28;20620;-64
2021/05/08 06:34:24;;;;;;;7.13;6.53;;;11.10;99.90;;;;;;5052524;28;20179;-64
2021/05/08 06:36:50;;;;;;;8.87;6.43;;;11.40;99.90;;;;;;5051751;28;20229;-63
2021/05/08 06:39:15;;;;;;;6.70;6.10;;;11.70;99.90;;;;;;5047086;28;20671;-63
2021/05/08 06:41:41;;;;;;;8.33;7.57;;;11.80;99.90;;;;;;5040434;28;20218;-65
2021/05/08 06:44:07;;;;;;;7.90;6.70;;;11.90;99.90;;;;;;5049455;28;20191;-64
2021/05/08 06:46:33;;;;;;;7.10;6.40;;;11.90;99.90;;;;;;5052935;28;20183;-63
2021/05/08 06:48:59;;;;;;;10.27;6.83;;;12.00;99.90;;;;;;5050143;28;20550;-63
2021/05/08 06:51:24;;;;;;;7.70;7.00;;;11.90;99.90;;;;;;5032263;28;20573;-64
2021/05/08 06:53:50;;;;;;;10.43;7.07;;;11.80;99.90;;;;;;5033032;28;20180;-64
2021/05/08 06:56:16;;;;;;;10.27;7.33;;;11.90;99.90;;;;;;5052619;28;20175;-63
2021/05/08 06:58:42;;;;;;;7.37;6.67;;;12.00;99.90;;;;;;5052686;28;20177;-64
2021/05/08 07:01:08;;;;;;;10.40;7.03;;;12.20;99.90;;;;;;5033194;28;20222;-64
2021/05/08 07:03:34;;;;;;;7.67;6.70;;;12.30;99.90;;;;;;5032748;28;20254;-64
2021/05/08 07:05:59;;;;;;;8.63;7.30;;;12.20;99.90;;;;;;5049533;28;20316;-65
2021/05/08 07:08:25;;;;;;;8.23;6.77;;;12.00;99.90;;;;;;5052672;28;20663;-64
2021/05/08 07:10:52;;;;;;;8.40;7.17;;;12.00;99.90;;;;;;5036416;28;20218;-64
2021/05/08 07:13:18;;;;;;;7.80;7.07;;;12.00;99.90;;;;;;5032484;28;20538;-64
2021/05/08 07:15:44;;;;;;;8.97;7.43;;;11.90;99.90;;;;;;5033680;28;20536;-64
2021/05/08 07:18:10;;;;;;;8.43;7.47;;;11.90;99.90;;;;;;5043553;28;20179;-64
2021/05/08 07:20:37;;;;;;;8.30;7.50;;;11.90;99.90;;;;;;5051912;28;20205;-64
2021/05/08 07:23:04;;;;;;;7.97;7.03;;;11.90;99.90;;;;;;5041704;28;20191;-63
2021/05/08 07:25:30;;;;;;;8.53;7.00;;;11.80;99.90;;;;;;5031412;28;20181;-64
2021/05/08 07:28:10;;;;;;;10.10;7.47;;;12.00;99.90;;;;;;5040204;28;20266;-64
2021/05/08 07:30:37;;;;;;;9.80;7.77;;;12.00;99.90;;;;;;5051584;28;20293;-64
2021/05/08 07:33:03;;;;;;;8.17;7.37;;;12.00;99.90;;;;;;5042871;28;20171;-63
2021/05/08 07:35:28;;;;;;;9.03;7.67;;;12.20;99.90;;;;;;5044549;28;20190;-64
2021/05/08 07:37:54;;;;;;;8.37;7.50;;;12.30;99.90;;;;;;5044621;28;20266;-63
2021/05/08 07:40:20;;;;;;;8.40;7.27;;;12.30;99.90;;;;;;5031387;28;20215;-64
2021/05/08 07:42:45;;;;;;;8.23;7.03;;;12.50;99.90;;;;;;5036626;28;20186;-64
2021/05/08 07:45:11;;;;;;;8.27;7.27;;;12.50;99.90;;;;;;5051586;28;20187;-63
2021/05/08 07:47:38;;;;;;;9.03;7.17;;;12.70;99.90;;;;;;5048114;28;20215;-64
2021/05/08 07:50:04;;;;;;;7.33;6.63;;;12.90;99.90;;;;;;5030880;28;20199;-63
2021/05/08 07:52:30;;;;;;;7.80;7.00;;;13.00;99.90;;;;;;5032981;28;20175;-63
2021/05/08 07:54:55;;;;;;;8.97;7.03;;;13.10;99.90;;;;;;5051684;28;20254;-63
2021/05/08 07:57:21;;;;;;;8.30;7.00;;;13.20;99.90;;;;;;5051540;28;20224;-64
2021/05/08 07:59:47;;;;;;;8.53;6.97;;;13.40;99.90;;;;;;5049657;28;20281;-63
2021/05/08 08:02:13;;;;;;;9.13;7.00;;;13.60;99.90;;;;;;5049489;28;20175;-64
2021/05/08 08:04:38;;;;;;;7.43;6.70;;;13.80;99.90;;;;;;5048680;28;20178;-63
2021/05/08 08:07:04;;;;;;;6.90;6.30;;;14.00;99.90;;;;;;5047937;28;20189;-63
2021/05/08 08:09:30;;;;;;;7.13;6.43;;;14.00;99.90;;;;;;5051526;28;20178;-63
2021/05/08 08:11:55;;;;;;;7.63;6.83;;;14.00;99.90;;;;;;5035820;28;20211;-63
2021/05/08 08:14:21;;;;;;;11.80;7.43;;;14.00;99.90;;;;;;5031113;28;20175;-63
2021/05/08 08:16:46;;;;;;;8.50;6.77;;;14.00;99.90;;;;;;5038851;28;20179;-63
2021/05/08 08:19:12;;;;;;;8.07;6.80;;;14.10;99.90;;;;;;5029515;28;20178;-64
2021/05/08 08:21:38;;;;;;;7.97;6.87;;;14.20;99.90;;;;;;5040723;28;20329;-63
2021/05/08 08:24:04;;;;;;;8.17;6.67;;;14.30;99.90;;;;;;5051013;28;20276;-64
2021/05/08 08:26:29;;;;;;;7.30;6.60;;;14.50;99.90;;;;;;5041653;28;20210;-63
2021/05/08 08:28:55;;;;;;;7.57;6.50;;;14.50;99.90;;;;;;5031105;28;20660;-64
2021/05/08 08:31:21;;;;;;;7.87;6.20;;;14.50;99.90;;;;;;5033688;28;20222;-64
2021/05/08 08:33:46;;;;;;;7.57;6.60;;;14.60;99.90;;;;;;5044177;28;20659;-64
2021/05/08 08:36:12;;;;;;;6.97;6.20;;;14.80;99.90;;;;;;5049914;28;20175;-64
2021/05/08 08:38:37;;;;;;;7.37;6.23;;;15.00;99.90;;;;;;5051676;28;20597;-64
2021/05/08 08:41:03;;;;;;;8.50;6.27;;;15.30;99.90;;;;;;5048739;28;20202;-64
2021/05/08 08:43:30;;;;;;;6.70;6.10;;;15.60;99.90;;;;;;5051198;28;20183;-64
2021/05/08 08:45:56;;;;;;;7.20;5.80;;;15.90;99.90;;;;;;5050951;28;20539;-65
2021/05/08 08:48:23;;;;;;;9.07;5.60;;;16.30;99.90;;;;;;5049064;28;20663;-64
2021/05/08 08:50:49;;;;;;;8.63;6.30;;;16.40;99.90;;;;;;5041994;28;20207;-64
2021/05/08 08:53:16;;;;;;;7.23;5.97;;;16.40;99.90;;;;;;5032133;28;20195;-64
2021/05/08 08:55:53;;;;;;;9.37;5.97;;;16.40;99.90;;;;;;5042077;28;20210;-64
2021/05/08 08:58:26;;;;;;;9.53;5.77;;;16.40;99.90;;;;;;5031227;28;20175;-64
2021/05/08 09:00:55;;;;;;;6.33;5.73;;;16.30;99.90;;;;;;5048465;28;20199;-64
2021/05/08 09:03:21;;;;;;;4.90;4.50;;;16.30;99.90;;;;;;5051705;28;20662;-64
2021/05/08 09:05:47;;;;;;;9.17;5.60;;;16.20;99.90;;;;;;5039676;28;20174;-64
2021/05/08 09:08:12;;;;;;;5.73;4.97;;;16.20;99.90;;;;;;5034338;28;20998;-64
2021/05/08 09:10:38;;;;;;;5.30;4.80;;;16.30;99.90;;;;;;5042101;28;20211;-64
2021/05/08 09:13:13;;;;;;;5.97;4.03;;;16.40;99.90;;;;;;5034465;28;20176;-64
2021/05/08 09:15:43;;;;;;;5.77;4.07;;;16.50;99.90;;;;;;5053064;28;20269;-64
2021/05/08 09:18:31;;;;;;;4.90;3.90;;;16.60;99.90;;;;;;5053986;28;20187;-63
2021/05/08 09:20:57;;;;;;;5.43;4.03;;;16.80;99.90;;;;;;5034103;28;20198;-64
2021/05/08 09:23:24;;;;;;;6.30;4.23;;;17.00;99.90;;;;;;5035672;28;20543;-64
2021/05/08 09:26:10;;;;;;;5.43;3.93;;;17.30;99.90;;;;;;5052785;28;20175;-64
2021/05/08 09:28:38;;;;;;;4.90;3.87;;;17.50;99.90;;;;;;5054109;28;20217;-64
2021/05/08 09:31:06;;;;;;;5.53;4.30;;;17.80;99.90;;;;;;5040812;28;20218;-63
2021/05/08 09:33:33;;;;;;;6.93;4.40;;;17.90;99.90;;;;;;5054371;28;20278;-64
2021/05/08 09:36:08;;;;;;;5.33;4.27;;;18.20;99.90;;;;;;5039011;28;20176;-64
2021/05/08 09:38:41;;;;;;;5.80;3.97;;;18.60;99.90;;;;;;5034288;28;20175;-64
2021/05/08 09:41:12;;;;;;;4.80;3.63;;;18.70;99.90;;;;;;5046377;28;20214;-64
2021/05/08 09:43:38;;;;;;;11.30;4.23;;;18.80;99.90;;;;;;5045600;28;20572;-64
2021/05/08 09:46:05;;;;;;;7.53;4.33;;;18.90;99.90;;;;;;5042398;28;20183;-64
2021/05/08 09:48:35;;;;;;;6.50;3.70;;;19.10;99.90;;;;;;5043711;28;20550;-64
2021/05/08 09:51:22;;;;;;;5.97;3.90;;;19.10;99.90;;;;;;5053369;28;20743;-64
2021/05/08 09:53:50;;;;;;;4.47;3.47;;;19.40;99.90;;;;;;5040967;28;20179;-64
2021/05/08 09:56:36;;;;;;;5.10;3.80;;;19.00;99.90;;;;;;5033911;28;20171;-63
2021/05/08 09:59:36;;;;;;;5.00;4.00;;;18.60;99.90;;;;;;5047428;28;20179;-63
2021/05/08 10:02:02;;;;;;;6.07;3.60;;;18.10;99.70;;;;;;5052766;28;20202;-63
2021/05/08 10:04:33;;;;;;;4.50;3.43;;;18.10;99.90;;;;;;5035389;28;20234;-63
2021/05/08 10:07:08;;;;;;;5.40;3.67;;;18.00;99.90;;;;;;5033563;28;20183;-64
2021/05/08 10:09:34;;;;;;;7.00;3.90;;;18.30;99.90;;;;;;5051433;28;20263;-64
2021/05/08 10:12:03;;;;;;;6.00;3.90;;;18.80;99.90;;;;;;5052151;28;20256;-64
2021/05/08 10:14:31;;;;;;;6.43;3.73;;;19.00;99.90;;;;;;5035369;28;20191;-63
2021/05/08 10:16:59;;;;;;;4.00;3.60;;;19.20;99.90;;;;;;5033443;28;20177;-64
2021/05/08 10:19:30;;;;;;;4.10;3.57;;;19.30;99.10;;;;;;5049694;28;20182;-63
2021/05/08 10:22:02;;;;;;;3.67;3.30;;;19.30;99.90;;;;;;5051811;28;20171;-64
2021/05/08 10:24:29;;;;;;;3.50;3.20;;;19.40;99.40;;;;;;5039274;28;20218;-64
2021/05/08 10:26:59;;;;;;;5.90;3.93;;;19.20;99.40;;;;;;5033244;28;20176;-64
2021/05/08 10:29:35;;;;;;;3.80;3.40;;;19.20;98.80;;;;;;5049203;28;20190;-64
2021/05/08 10:32:03;;;;;;;4.10;3.43;;;19.40;98.60;;;;;;5053541;28;20202;-63
2021/05/08 10:35:04;;;;;;;3.43;3.00;;;19.30;98.70;;;;;;5036467;28;20196;-63
2021/05/08 10:37:31;;;;;;;4.37;3.43;;;19.30;99.00;;;;;;5034388;28;20581;-63
2021/05/08 10:40:10;;;;;;;6.63;3.30;;;19.00;97.60;;;;;;5047917;28;20290;-64
2021/05/08 10:42:38;;;;;;;4.43;3.50;;;19.00;97.90;;;;;;5033647;28;20604;-64
2021/05/08 10:45:27;;;;;;;4.90;3.30;;;19.00;98.60;;;;;;5052827;28;20183;-64
2021/05/08 10:50:38;;;;;;;4.37;3.97;;;19.20;99.00;;;;;;5032447;28;20614;-64
2021/05/08 10:53:07;;;;;;;5.50;3.80;;;19.20;97.90;;;;;;5035781;28;20185;-64
2021/05/08 10:55:49;;;;;;;5.47;3.37;;;18.80;98.40;;;;;;5052656;28;20181;-63
2021/05/08 10:58:15;;;;;;;3.37;3.07;;;18.80;98.10;;;;;;5047366;28;20254;-64
2021/05/08 11:00:51;;;;;;;5.60;3.30;;;18.90;98.90;;;;;;5032336;28;20207;-64
2021/05/08 11:03:18;;;;;;;6.50;3.40;;;18.90;98.30;;;;;;5037015;28;20717;-64
2021/05/08 11:05:54;;;;;;;6.10;3.30;;;18.70;97.80;;;;;;5051269;28;20569;-63
2021/05/08 11:08:26;;;;;;;6.40;3.73;;;18.20;97.80;;;;;;5032306;28;20237;-64
2021/05/08 11:10:53;;;;;;;6.00;3.10;;;18.00;98.70;;;;;;5033138;28;20560;-63
2021/05/08 11:13:21;;;;;;;6.50;3.30;;;18.00;98.20;;;;;;5052036;28;20206;-64
2021/05/08 11:15:56;;;;;;;4.43;2.73;;;18.10;99.80;;;;;;5050653;28;20213;-64
2021/05/08 11:18:31;;;;;;;3.00;2.80;;;18.10;99.10;;;;;;5032277;28;20171;-64
2021/05/08 11:20:58;;;;;;;5.77;2.80;;;17.70;98.60;;;;;;5033517;28;20190;-63
2021/05/08 11:23:23;;;;;;;3.47;3.17;;;17.50;99.90;;;;;;5051899;28;20178;-63
2021/05/08 11:25:49;;;;;;;3.60;3.30;;;17.40;99.90;;;;;;5050655;28;20265;-64
2021/05/08 11:28:15;;;;;;;3.23;2.93;;;17.40;99.90;;;;;;5032056;28;20179;-64
2021/05/08 11:30:54;;;;;;;3.13;2.77;;;17.40;99.90;;;;;;5031667;28;20211;-64
2021/05/08 11:33:25;;;;;;;3.13;2.93;;;17.70;99.90;;;;;;5031894;28;20258;-64
2021/05/08 11:36:01;;;;;;;3.80;3.00;;;17.80;99.90;;;;;;5033121;28;20183;-64
2021/05/08 11:38:27;;;;;;;2.90;2.70;;;18.00;99.90;;;;;;5051879;28;20178;-64
2021/05/08 11:40:53;;;;;;;3.43;3.13;;;17.90;99.90;;;;;;5050233;28;20215;-64
2021/05/08 11:43:26;;;;;;;5.93;2.93;;;17.70;99.90;;;;;;5036317;28;20194;-64
2021/05/08 11:45:53;;;;;;;3.10;2.80;;;17.40;99.90;;;;;;5051372;28;20216;-64
2021/05/08 11:48:19;;;;;;;3.10;2.83;;;17.10;99.90;;;;;;5031846;28;20266;-63
2021/05/08 11:50:49;;;;;;;5.50;3.00;;;16.90;99.90;;;;;;5031359;28;20301;-63
2021/05/08 11:53:16;;;;;;;3.37;2.97;;;16.70;99.90;;;;;;5050490;28;20195;-64
2021/05/08 11:55:48;;;;;;;4.13;2.80;;;16.50;99.90;;;;;;5051875;28;20171;-64
2021/05/08 11:58:26;;;;;;;5.17;3.10;;;16.40;99.90;;;;;;5033367;28;20187;-64
2021/05/08 12:00:53;;;;;;;4.30;2.90;;;16.00;99.90;;;;;;5031394;28;20565;-64
2021/05/08 12:03:19;;;;;;;3.30;3.00;;;16.00;99.90;;;;;;5050681;28;20190;-64
2021/05/08 12:05:48;;;;;;;3.20;3.00;;;16.20;99.90;;;;;;5051713;28;20175;-64
2021/05/08 12:08:17;;;;;;;2.93;2.70;;;16.30;99.90;;;;;;5033361;28;20195;-64
2021/05/08 12:10:44;;;;;;;3.07;2.83;;;16.40;99.90;;;;;;5031480;28;20226;-64
2021/05/08 12:13:10;;;;;;;5.37;2.80;;;16.60;99.90;;;;;;5033841;28;20183;-64
2021/05/08 12:15:37;;;;;;;5.07;2.90;;;16.60;99.90;;;;;;5031136;28;20171;-64
2021/05/08 12:18:08;;;;;;;3.23;2.97;;;16.70;99.90;;;;;;5047612;28;20202;-64
2021/05/08 12:20:45;;;;;;;3.03;2.73;;;16.80;99.90;;;;;;5051461;28;20190;-64
2021/05/08 12:23:13;;;;;;;2.90;2.70;;;16.80;99.90;;;;;;5033547;28;20182;-64
2021/05/08 12:25:39;;;;;;;3.20;2.90;;;17.00;99.90;;;;;;5031463;28;20198;-64
2021/05/08 12:28:23;;;;;;;3.40;3.10;;;17.10;99.90;;;;;;5047627;28;20218;-64
2021/05/08 12:30:51;;;;;;;3.10;2.60;;;17.20;99.90;;;;;;5046276;28;20210;-64
2021/05/08 12:33:22;;;;;;;3.23;2.90;;;17.20;99.90;;;;;;5037253;28;20550;-64
2021/05/08 12:35:55;;;;;;;3.33;3.10;;;17.20;99.90;;;;;;5036465;28;20207;-64
2021/05/08 12:38:20;;;;;;;4.03;3.07;;;17.00;99.90;;;;;;5048519;28;20206;-64
2021/05/08 12:40:47;;;;;;;3.53;3.23;;;16.70;99.90;;;;;;5049311;28;20222;-64
2021/05/08 12:43:26;;;;;;;3.30;3.00;;;16.40;99.90;;;;;;5054675;28;20175;-64
2021/05/08 12:46:06;;;;;;;3.40;3.20;;;16.10;99.90;;;;;;5044023;28;20209;-64
2021/05/08 12:48:45;;;;;;;3.10;2.90;;;16.00;99.90;;;;;;5055349;28;20222;-64